createdAt,value
2018-07-13T00:02:14.276Z,31.90
2018-07-13T00:04:47.789Z,31.90
2018-07-13T00:07:22.010Z,31.90
2018-07-13T00:09:56.579Z,31.90
2018-07-13T00:12:30.376Z,31.90
2018-07-13T00:15:12.758Z,31.90
2018-07-13T00:17:46.429Z,32.00
2018-07-13T00:20:20.333Z,32.00
2018-07-13T00:22:54.424Z,32.00
2018-07-13T00:25:28.352Z,32.10
2018-07-13T00:28:03.292Z,32.10
2018-07-13T00:30:37.111Z,32.10
2018-07-13T00:33:10.993Z,32.10
2018-07-13T00:35:45.016Z,32.10
2018-07-13T00:38:21.095Z,32.20
2018-07-13T00:40:54.986Z,32.20
2018-07-13T00:43:28.852Z,32.20
2018-07-13T00:46:02.901Z,32.30
2018-07-13T00:48:36.937Z,32.30
2018-07-13T00:51:11.727Z,32.40
2018-07-13T00:53:45.765Z,32.40
2018-07-13T00:56:20.389Z,32.40
2018-07-13T00:58:53.867Z,32.40
2018-07-13T01:01:27.866Z,32.50
2018-07-13T01:04:01.862Z,32.50
2018-07-13T01:06:35.838Z,32.60
2018-07-13T01:09:11.241Z,32.70
2018-07-13T01:11:45.056Z,32.70
2018-07-13T01:14:20.495Z,32.80
2018-07-13T01:16:53.998Z,32.90
2018-07-13T01:19:28.253Z,32.90
2018-07-13T01:22:02.414Z,33.00
2018-07-13T01:24:36.454Z,33.00
2018-07-13T01:27:10.486Z,33.10
2018-07-13T01:29:44.484Z,33.10
2018-07-13T01:32:19.280Z,33.10
2018-07-13T01:34:53.105Z,33.20
2018-07-13T01:37:27.341Z,33.20
2018-07-13T01:40:01.185Z,33.20
2018-07-13T01:42:35.343Z,33.30
2018-07-13T01:45:09.597Z,33.30
2018-07-13T01:50:15.873Z,33.30
2018-07-13T01:52:52.322Z,33.30
2018-07-13T01:55:26.352Z,33.30
2018-07-13T01:57:59.809Z,33.40
2018-07-13T02:00:34.352Z,33.40
2018-07-13T02:03:08.155Z,33.40
2018-07-13T02:05:41.929Z,33.50
2018-07-13T02:08:15.605Z,33.60
2018-07-13T02:11:18.201Z,33.60
2018-07-13T02:13:52.515Z,33.80
2018-07-13T02:16:31.038Z,33.90
2018-07-13T02:19:04.783Z,34.10
2018-07-13T02:21:38.664Z,34.20
2018-07-13T02:24:14.109Z,34.30
2018-07-13T02:27:03.980Z,34.40
2018-07-13T02:29:38.204Z,34.50
2018-07-13T02:32:13.280Z,34.70
2018-07-13T02:34:47.159Z,34.70
2018-07-13T02:37:25.805Z,34.90
2018-07-13T02:40:03.672Z,34.90
2018-07-13T02:42:50.027Z,35.10
2018-07-13T02:46:13.241Z,35.20
2018-07-13T02:54:19.942Z,35.40
2018-07-13T03:02:29.902Z,35.60
2018-07-13T03:05:03.605Z,35.60
2018-07-13T03:07:50.199Z,35.70
2018-07-13T03:10:43.901Z,35.80
2018-07-13T03:13:32.140Z,35.80
2018-07-13T03:16:06.613Z,35.90
2018-07-13T03:18:48.271Z,35.90
2018-07-13T03:30:20.085Z,36.00
2018-07-13T03:32:54.105Z,36.10
2018-07-13T03:35:40.046Z,36.10
2018-07-13T03:38:14.543Z,36.20
2018-07-13T03:42:36.058Z,36.30
2018-07-13T03:45:10.003Z,36.30
2018-07-13T03:47:44.850Z,36.40
2018-07-13T03:50:18.982Z,36.50
2018-07-13T03:52:52.359Z,36.50
2018-07-13T03:55:27.240Z,36.60
2018-07-13T03:58:00.782Z,36.70
2018-07-13T04:00:34.731Z,36.70
2018-07-13T04:03:08.527Z,36.80
2018-07-13T04:05:42.906Z,36.80
2018-07-13T04:08:16.563Z,36.90
2018-07-13T04:10:49.960Z,36.90
2018-07-13T04:13:23.774Z,36.90
2018-07-13T04:15:58.957Z,36.90
2018-07-13T04:18:32.997Z,36.90
2018-07-13T04:21:06.864Z,36.90
2018-07-13T04:26:13.684Z,36.90
2018-07-13T04:28:47.574Z,36.90
2018-07-13T04:31:21.409Z,36.90
2018-07-13T04:33:55.007Z,36.90
2018-07-13T04:56:09.701Z,37.00
2018-07-13T04:58:43.429Z,37.00
2018-07-13T05:01:17.340Z,36.40
2018-07-13T05:03:51.278Z,36.40
2018-07-13T05:06:24.887Z,36.40
2018-07-13T05:08:59.692Z,36.50
2018-07-13T05:11:34.439Z,36.50
2018-07-13T05:14:08.230Z,36.50
2018-07-13T05:16:43.467Z,36.50
2018-07-13T05:19:17.409Z,36.60
2018-07-13T05:21:51.512Z,36.50
2018-07-13T05:24:25.419Z,36.50
2018-07-13T05:26:58.775Z,36.50
2018-07-13T05:29:33.588Z,36.50
2018-07-13T05:56:08.658Z,36.50
2018-07-13T05:58:42.955Z,36.50
2018-07-13T06:03:48.792Z,36.30
2018-07-13T06:06:22.934Z,36.50
2018-07-13T06:08:57.153Z,36.60
2018-07-13T06:11:31.541Z,36.80
2018-07-13T06:14:05.703Z,36.90
2018-07-13T06:16:40.164Z,37.10
2018-07-13T06:19:16.578Z,37.20
2018-07-13T06:21:51.468Z,37.30
2018-07-13T06:24:26.647Z,37.40
2018-07-13T06:27:00.667Z,37.50
2018-07-13T06:32:13.899Z,37.70
2018-07-13T06:34:47.904Z,37.70
2018-07-13T06:37:22.484Z,37.80
2018-07-13T06:39:56.162Z,37.80
2018-07-13T06:42:31.866Z,37.90
2018-07-13T06:45:06.550Z,37.80
2018-07-13T06:47:40.367Z,37.90
2018-07-13T06:50:14.217Z,37.90
2018-07-13T06:52:49.757Z,37.80
2018-07-13T06:55:25.378Z,37.80
2018-07-13T06:58:07.801Z,37.70
2018-07-13T07:01:03.849Z,37.70
2018-07-13T07:06:17.462Z,37.60
2018-07-13T07:08:53.213Z,37.50
2018-07-13T07:11:27.947Z,37.50
2018-07-13T07:14:02.207Z,37.40
2018-07-13T07:16:36.736Z,37.40
2018-07-13T07:19:10.524Z,37.40
2018-07-13T07:21:46.169Z,37.40
2018-07-13T07:24:20.194Z,37.40
2018-07-13T07:26:55.616Z,37.40
2018-07-13T07:32:03.456Z,37.40
2018-07-13T07:37:09.650Z,37.40
2018-07-13T07:39:44.018Z,37.40
2018-07-13T07:42:18.554Z,37.30
2018-07-13T07:44:52.643Z,37.30
2018-07-13T07:47:26.771Z,37.30
2018-07-13T07:50:01.075Z,37.20
2018-07-13T07:52:36.146Z,37.20
2018-07-13T07:55:10.283Z,37.10
2018-07-13T07:57:45.048Z,37.10
2018-07-13T08:00:19.032Z,37.10
2018-07-13T08:02:53.573Z,37.00
2018-07-13T08:05:27.372Z,36.90
2018-07-13T08:10:34.075Z,36.80
2018-07-13T08:13:08.722Z,36.70
2018-07-13T08:18:14.848Z,36.60
2018-07-13T08:20:51.420Z,36.50
2018-07-13T08:23:26.017Z,36.50
2018-07-13T08:26:01.028Z,36.50
2018-07-13T08:28:35.279Z,36.40
2018-07-13T08:31:11.171Z,36.40
2018-07-13T08:33:46.969Z,36.40
2018-07-13T08:36:22.296Z,36.40
2018-07-13T08:38:57.076Z,36.40
2018-07-13T08:41:31.024Z,36.40
2018-07-13T08:44:05.471Z,36.50
2018-07-13T08:46:40.037Z,36.50
2018-07-13T08:51:46.068Z,36.50
2018-07-13T08:54:22.371Z,36.50
2018-07-13T08:56:57.301Z,36.50
2018-07-13T08:59:31.065Z,36.40
2018-07-13T09:02:06.537Z,36.40
2018-07-13T09:04:40.268Z,36.40
2018-07-13T09:10:19.837Z,36.30
2018-07-13T09:12:55.873Z,36.30
2018-07-13T09:15:29.828Z,36.30
2018-07-13T09:18:03.550Z,36.20
2018-07-13T09:20:38.791Z,36.10
2018-07-13T09:25:45.766Z,36.10
2018-07-13T09:28:21.027Z,36.10
2018-07-13T09:33:27.363Z,36.00
2018-07-13T09:36:00.711Z,36.00
2018-07-13T09:41:06.860Z,36.00
2018-07-13T09:43:41.171Z,36.00
2018-07-13T09:46:14.955Z,35.90
2018-07-13T09:48:49.712Z,36.00
2018-07-13T09:51:23.578Z,35.80
2018-07-13T09:53:57.338Z,35.80
2018-07-13T09:56:32.335Z,35.80
2018-07-13T09:59:06.266Z,35.70
2018-07-13T10:01:40.683Z,35.70
2018-07-13T10:04:14.520Z,35.60
2018-07-13T10:06:48.603Z,35.60
2018-07-13T10:09:22.499Z,35.60
2018-07-13T10:11:56.588Z,35.60
2018-07-13T10:14:31.531Z,35.50
2018-07-13T10:17:05.389Z,35.50
2018-07-13T10:19:39.270Z,35.50
2018-07-13T10:22:14.062Z,35.50
2018-07-13T10:24:47.954Z,35.40
2018-07-13T10:27:22.488Z,35.30
2018-07-13T10:30:00.120Z,35.30
2018-07-13T10:32:34.980Z,35.30
2018-07-13T10:35:10.342Z,35.30
2018-07-13T10:37:45.557Z,35.30
2018-07-13T10:40:19.714Z,35.30
2018-07-13T10:42:53.782Z,35.20
2018-07-13T10:45:28.397Z,35.20
2018-07-13T10:48:01.939Z,35.20
2018-07-13T10:55:41.502Z,35.10
2018-07-13T10:58:15.761Z,35.00
2018-07-13T11:00:49.807Z,35.00
2018-07-13T11:03:23.461Z,34.90
2018-07-13T11:11:03.174Z,34.70
2018-07-13T11:13:36.546Z,34.80
2018-07-13T11:16:10.343Z,34.70
2018-07-13T11:18:44.821Z,34.70
2018-07-13T11:21:18.016Z,34.60
2018-07-13T11:56:08.051Z,34.60
2018-07-13T11:58:43.409Z,34.60
2018-07-13T12:01:18.169Z,33.30
2018-07-13T12:03:51.919Z,33.20
2018-07-13T12:06:27.057Z,33.30
2018-07-13T12:09:01.442Z,33.30
2018-07-13T12:16:42.274Z,33.50
2018-07-13T12:19:16.953Z,33.50
2018-07-13T12:21:51.092Z,33.60
2018-07-13T12:24:25.011Z,33.60
2018-07-13T12:26:58.894Z,33.60
2018-07-13T12:29:34.149Z,33.70
2018-07-13T12:32:08.924Z,33.70
2018-07-13T12:34:44.455Z,33.70
2018-07-13T12:39:51.835Z,33.70
2018-07-13T12:42:30.873Z,33.70
2018-07-13T12:45:04.680Z,33.70
2018-07-13T12:47:38.556Z,33.70
2018-07-13T12:50:14.657Z,33.70
2018-07-13T12:52:48.757Z,33.70
2018-07-13T12:55:22.883Z,33.70
2018-07-13T12:57:56.887Z,33.60
2018-07-13T13:00:32.697Z,33.60
2018-07-13T13:03:07.522Z,33.60
2018-07-13T13:05:41.771Z,33.60
2018-07-13T13:10:48.384Z,33.60
2018-07-13T13:13:22.525Z,33.60
2018-07-13T13:15:56.655Z,33.60
2018-07-13T13:18:30.926Z,33.60
2018-07-13T13:21:04.699Z,33.60
2018-07-13T13:26:11.088Z,33.60
2018-07-13T13:28:45.029Z,33.60
2018-07-13T13:31:19.891Z,33.60
2018-07-13T13:33:53.652Z,33.60
2018-07-13T13:36:27.661Z,33.60
2018-07-13T13:41:34.613Z,33.50
2018-07-13T13:44:09.360Z,33.60
2018-07-13T13:46:43.418Z,33.60
2018-07-13T13:49:20.400Z,33.60
2018-07-13T13:51:54.439Z,33.50
2018-07-13T13:54:29.142Z,33.50
2018-07-13T13:57:02.953Z,33.50
2018-07-13T13:59:37.100Z,33.50
2018-07-13T14:02:11.304Z,33.50
2018-07-13T14:04:44.808Z,33.50
2018-07-13T14:12:38.991Z,33.40
2018-07-13T14:15:13.675Z,33.40
2018-07-13T14:20:20.191Z,33.40
2018-07-13T14:22:54.284Z,33.40
2018-07-13T14:25:27.831Z,33.40
2018-07-13T14:28:01.634Z,33.40
2018-07-13T14:30:35.853Z,33.40
2018-07-13T14:33:09.908Z,33.40
2018-07-13T14:35:44.205Z,33.30
2018-07-13T14:38:18.274Z,33.40
2018-07-13T14:40:52.481Z,33.30
2018-07-13T14:43:26.681Z,33.30
2018-07-13T14:48:34.477Z,33.20
2018-07-13T14:51:09.215Z,33.20
2018-07-13T14:53:43.228Z,33.20
2018-07-13T14:56:17.114Z,33.20
2018-07-13T14:58:51.258Z,33.20
2018-07-13T15:03:57.805Z,33.20
2018-07-13T15:06:31.869Z,33.10
2018-07-13T15:09:05.443Z,33.10
2018-07-13T15:11:39.668Z,33.20
2018-07-13T15:14:13.662Z,33.10
2018-07-13T15:16:47.658Z,33.10
2018-07-13T15:19:21.820Z,33.10
2018-07-13T15:24:28.704Z,33.10
2018-07-13T15:27:02.920Z,33.10
2018-07-13T15:29:36.735Z,33.00
2018-07-13T15:34:43.548Z,33.00
2018-07-13T15:39:49.608Z,33.00
2018-07-13T15:42:23.475Z,32.90
2018-07-13T15:44:57.266Z,32.90
2018-07-13T15:47:32.272Z,32.90
2018-07-13T15:50:07.280Z,32.90
2018-07-13T15:52:41.426Z,32.90
2018-07-13T15:57:48.344Z,32.90
2018-07-13T16:00:22.325Z,32.90
2018-07-13T16:02:56.205Z,32.90
2018-07-13T16:05:30.335Z,32.80
2018-07-13T16:08:04.297Z,32.80
2018-07-13T16:10:38.665Z,32.80
2018-07-13T16:13:12.670Z,32.80
2018-07-13T16:15:47.609Z,32.80
2018-07-13T16:20:54.564Z,32.80
2018-07-13T16:23:28.898Z,32.80
2018-07-13T16:26:02.922Z,32.80
2018-07-13T16:28:36.553Z,32.70
2018-07-13T16:31:11.189Z,32.70
2018-07-13T16:33:44.323Z,32.70
2018-07-13T16:36:18.642Z,32.70
2018-07-13T16:38:52.550Z,32.70
2018-07-13T16:41:26.883Z,32.70
2018-07-13T16:44:01.024Z,32.70
2018-07-13T16:49:08.937Z,32.70
2018-07-13T16:51:42.704Z,32.70
2018-07-13T16:54:17.230Z,32.70
2018-07-13T16:56:50.883Z,32.60
2018-07-13T16:59:24.910Z,32.70
2018-07-13T17:01:58.956Z,32.70
2018-07-13T17:04:32.377Z,32.70
2018-07-13T17:07:06.907Z,32.70
2018-07-13T17:09:40.587Z,32.70
2018-07-13T17:12:14.916Z,32.70
2018-07-13T17:14:48.553Z,32.70
2018-07-13T17:17:22.723Z,32.70
2018-07-13T17:19:56.783Z,32.70
2018-07-13T17:25:03.283Z,32.60
2018-07-13T17:30:09.559Z,32.60
2018-07-13T17:35:16.926Z,32.60
2018-07-13T17:37:51.107Z,32.60
2018-07-13T17:40:24.888Z,32.60
2018-07-13T17:42:58.331Z,32.50
2018-07-13T17:45:33.619Z,32.50
2018-07-13T17:50:40.330Z,32.50
2018-07-13T17:53:14.151Z,32.50
2018-07-13T17:55:49.867Z,32.50
2018-07-13T17:58:24.403Z,32.50
2018-07-13T18:03:30.839Z,32.40
2018-07-13T18:06:05.124Z,32.50
2018-07-13T18:08:39.110Z,32.50
2018-07-13T18:11:13.619Z,32.50
2018-07-13T18:13:48.581Z,32.50
2018-07-13T18:16:22.445Z,32.40
2018-07-13T18:18:57.809Z,32.40
2018-07-13T18:21:31.621Z,32.40
2018-07-13T18:42:54.165Z,32.40
2018-07-13T18:45:27.719Z,31.60
2018-07-13T18:48:02.345Z,31.60
2018-07-13T18:50:36.109Z,31.60
2018-07-13T18:53:12.224Z,31.60
2018-07-13T18:55:46.056Z,31.70
2018-07-13T18:58:20.092Z,31.80
2018-07-13T19:00:53.939Z,31.80
2018-07-13T19:03:27.940Z,31.80
2018-07-13T19:06:01.853Z,31.80
2018-07-13T19:08:35.648Z,31.90
2018-07-13T19:11:09.923Z,31.90
2018-07-13T19:13:44.365Z,32.00
2018-07-13T19:16:18.691Z,31.90
2018-07-13T19:18:52.348Z,32.00
2018-07-13T19:21:25.949Z,32.00
2018-07-13T19:23:59.984Z,32.00
2018-07-13T19:26:33.677Z,32.00
2018-07-13T19:29:07.571Z,32.00
2018-07-13T19:31:41.436Z,32.10
2018-07-13T19:34:15.346Z,32.10
2018-07-13T19:36:48.913Z,32.10
2018-07-13T19:41:54.879Z,32.10
2018-07-13T19:44:28.535Z,32.10
2018-07-13T19:47:02.462Z,32.10
2018-07-13T19:49:36.498Z,32.00
2018-07-13T19:52:10.464Z,32.00
2018-07-13T19:54:45.588Z,32.00
2018-07-13T19:57:19.450Z,32.00
2018-07-13T19:59:54.655Z,32.00
2018-07-13T20:02:28.711Z,32.00
2018-07-13T20:07:35.682Z,32.00
2018-07-13T20:10:10.116Z,32.00
2018-07-13T20:12:43.990Z,32.10
2018-07-13T20:15:18.000Z,32.00
2018-07-13T20:17:51.803Z,32.00
2018-07-13T20:20:27.145Z,32.00
2018-07-13T20:23:00.643Z,32.00
2018-07-13T20:25:34.503Z,32.00
2018-07-13T20:28:08.326Z,32.00
2018-07-13T20:30:42.053Z,32.00
2018-07-13T20:33:16.149Z,32.00
2018-07-13T20:35:49.899Z,31.90
2018-07-13T20:38:23.062Z,31.90
2018-07-13T20:43:29.474Z,32.00
2018-07-13T20:46:03.056Z,32.00
2018-07-13T20:48:37.315Z,31.90
2018-07-13T20:51:10.990Z,31.90
2018-07-13T20:53:44.660Z,31.90
2018-07-13T20:58:52.744Z,31.90
2018-07-13T21:01:26.526Z,31.90
2018-07-13T21:03:59.773Z,31.90
2018-07-13T21:09:05.933Z,31.90
2018-07-13T21:11:39.735Z,31.90
2018-07-13T21:14:13.197Z,31.90
2018-07-13T21:16:47.636Z,31.90
2018-07-13T21:19:22.332Z,31.90
2018-07-13T21:21:55.909Z,31.90
2018-07-13T21:24:29.761Z,31.90
2018-07-13T21:27:03.801Z,31.90
2018-07-13T21:29:38.165Z,31.90
2018-07-13T21:32:11.855Z,31.80
2018-07-13T21:34:47.087Z,31.80
2018-07-13T21:37:51.341Z,31.80
2018-07-13T21:40:25.121Z,31.80
2018-07-13T21:42:58.687Z,31.80
2018-07-13T21:45:32.327Z,31.80
2018-07-13T21:50:46.022Z,31.80
2018-07-13T21:53:20.414Z,31.80
2018-07-13T21:55:55.641Z,31.80
2018-07-13T21:58:31.300Z,31.80
2018-07-13T22:01:05.044Z,31.80
2018-07-13T22:03:38.689Z,31.80
2018-07-13T22:06:12.511Z,31.80
2018-07-13T22:08:46.182Z,31.80
2018-07-13T22:11:20.265Z,31.80
2018-07-13T22:13:54.247Z,31.80
2018-07-13T22:16:28.320Z,31.80
2018-07-13T22:23:59.427Z,31.80
2018-07-13T22:26:33.135Z,31.80
2018-07-13T22:29:07.147Z,31.80
2018-07-13T22:31:40.996Z,31.80
2018-07-13T22:34:16.296Z,31.80
2018-07-13T22:36:51.264Z,31.80
2018-07-13T22:39:25.755Z,31.70
2018-07-13T22:41:59.665Z,31.80
2018-07-13T22:44:33.567Z,31.80
2018-07-13T22:47:07.659Z,31.80
2018-07-13T22:49:41.360Z,31.70
2018-07-13T22:54:47.672Z,31.70
2018-07-13T22:57:21.999Z,31.70
2018-07-13T22:59:56.606Z,31.70
2018-07-13T23:02:30.669Z,31.70
2018-07-13T23:05:04.730Z,31.70
2018-07-13T23:07:38.434Z,31.70
2018-07-13T23:10:12.529Z,31.70
2018-07-13T23:12:46.480Z,31.70
2018-07-13T23:15:20.494Z,31.70
2018-07-13T23:17:54.513Z,31.60
2018-07-13T23:20:28.328Z,31.70
2018-07-13T23:23:01.601Z,31.70
2018-07-13T23:25:35.385Z,31.60
2018-07-13T23:30:41.506Z,31.70
2018-07-13T23:33:14.933Z,31.60
2018-07-13T23:35:48.967Z,31.60
2018-07-13T23:38:22.914Z,31.60
2018-07-13T23:40:57.186Z,31.70
2018-07-13T23:43:31.065Z,31.60
2018-07-13T23:46:05.288Z,31.70
2018-07-13T23:48:39.199Z,31.60
2018-07-13T23:51:13.068Z,31.70
2018-07-13T23:53:47.071Z,31.70
2018-07-13T23:56:21.336Z,31.70
2018-07-13T23:58:55.368Z,31.70
